Time;durP1;ratioP1;P1;durP2;ratioP2;P2;SDS_P1;SDS_P2;PMS_P1;PMS_P2;Temp;Humidity;BMP_temperature;BMP_pressure;BME280_temperature;BME280_humidity;BME280_pressure;Samples;Min_cycle;Max_cycle;Signal;HPM_P1;HPM_P2
2021/12/06 00:01:31;;;;;;;31.15;26.70;;;-1.80;86.60;-2.20;98697.00;;;;4974638;28;88806;-52
2021/12/06 00:04:09;;;;;;;28.23;24.90;;;-1.70;87.30;-2.20;98683.00;;;;4960935;28;88479;-61
2021/12/06 00:06:39;;;;;;;32.40;26.67;;;-1.70;87.30;-2.10;98685.00;;;;4961251;28;87460;-61
2021/12/06 00:09:10;;;;;;;38.85;26.33;;;-1.70;86.80;-2.10;98687.00;;;;4960913;28;86193;-61
2021/12/06 00:11:36;;;;;;;31.25;26.70;;;-1.70;86.70;-2.10;98685.00;;;;4976692;28;90322;-61
2021/12/06 00:14:04;;;;;;;29.85;26.15;;;-1.70;86.70;-2.20;98688.00;;;;4959355;28;87912;-62
2021/12/06 00:16:30;;;;;;;31.25;26.63;;;-1.70;86.70;-2.20;98686.00;;;;4967653;28;88007;-62
2021/12/06 00:18:56;;;;;;;26.63;23.63;;;-1.70;87.10;-2.10;98687.00;;;;4978908;28;87324;-55
2021/12/06 00:21:23;;;;;;;28.17;22.98;;;-1.70;87.30;-2.10;98683.00;;;;4983967;28;88579;-58
2021/12/06 00:23:50;;;;;;;28.35;24.13;;;-1.70;86.70;-2.10;98684.00;;;;4974141;28;87441;-57
2021/12/06 00:26:18;;;;;;;34.08;26.52;;;-1.70;86.70;-2.10;98681.00;;;;4964308;28;86906;-56
2021/12/06 00:28:46;;;;;;;28.73;25.15;;;-1.70;86.70;-2.20;98681.00;;;;4964293;28;87008;-56
2021/12/06 00:31:14;;;;;;;27.85;24.10;;;-1.70;86.70;-2.20;98687.00;;;;4979569;28;88860;-57
2021/12/06 00:33:41;;;;;;;27.60;23.98;;;-1.70;86.70;-2.20;98685.00;;;;4964436;28;87477;-55
2021/12/06 00:36:15;;;;;;;26.33;23.50;;;-1.80;86.50;-2.20;98684.00;;;;4961879;28;87408;-55
2021/12/06 00:38:45;;;;;;;27.42;24.52;;;-1.70;86.70;-2.10;98685.00;;;;4972595;28;87020;-55
2021/12/06 00:41:12;;;;;;;26.80;24.00;;;-1.70;86.70;-2.20;98686.00;;;;4982104;28;90541;-55
2021/12/06 00:43:38;;;;;;;26.60;22.52;;;-1.70;86.70;-2.20;98682.00;;;;4983613;28;88350;-57
2021/12/06 00:46:04;;;;;;;27.25;24.38;;;-1.70;86.70;-2.20;98687.00;;;;4983448;28;87201;-57
2021/12/06 00:48:30;;;;;;;28.25;25.25;;;-1.70;86.70;-2.20;98690.00;;;;4984025;28;87124;-54
2021/12/06 00:50:56;;;;;;;27.95;24.75;;;-1.80;86.50;-2.20;98675.00;;;;4949765;28;91172;-55
2021/12/06 00:53:23;;;;;;;29.33;25.73;;;-1.80;86.50;-2.20;98680.00;;;;4999124;28;90097;-57
2021/12/06 00:55:49;;;;;;;31.52;24.70;;;-1.80;86.50;-2.20;98680.00;;;;4992958;28;87478;-61
2021/12/06 00:58:15;;;;;;;29.55;26.35;;;-1.80;86.70;-2.20;98667.00;;;;4963404;28;86243;-61
2021/12/06 01:00:50;;;;;;;27.90;24.90;;;-1.80;86.70;-2.20;98674.00;;;;4962481;28;88539;-61
2021/12/06 01:03:24;;;;;;;28.25;24.50;;;-1.70;86.70;-2.20;98670.00;;;;4963000;28;88145;-61
2021/12/06 01:05:51;;;;;;;28.33;25.30;;;-1.80;86.50;-2.20;98669.00;;;;4962885;28;87864;-60
2021/12/06 01:08:19;;;;;;;28.15;23.73;;;-1.80;86.50;-2.20;98658.00;;;;4961809;28;87068;-60
2021/12/06 01:10:45;;;;;;;27.13;24.23;;;-1.70;86.70;-2.20;98675.00;;;;4963269;28;87002;-60
2021/12/06 01:13:12;;;;;;;26.45;23.65;;;-1.80;86.50;-2.20;98670.00;;;;4963116;28;87491;-60
2021/12/06 01:15:40;;;;;;;27.77;24.88;;;-1.80;86.50;-2.20;98673.00;;;;4967871;28;87001;-60
2021/12/06 01:18:10;;;;;;;26.48;23.45;;;-1.80;87.30;-2.20;98672.00;;;;4982793;28;87381;-58
2021/12/06 01:21:09;;;;;;;25.98;23.13;;;-1.80;86.50;-2.20;98672.00;;;;4982001;28;87720;-59
2021/12/06 01:23:29;;;;;;;26.05;23.27;;;-1.80;86.50;-2.20;98671.00;;;;4965004;28;89332;-59
2021/12/06 01:41:50;;;;;;;27.38;24.42;;;-1.80;86.50;-2.20;98692.00;;;;4962014;28;87634;-61
2021/12/06 01:44:41;;;;;;;25.83;22.55;;;-1.90;86.40;-2.30;98687.00;;;;4945237;28;89498;-61
2021/12/06 01:47:15;;;;;;;25.83;23.02;;;-1.80;86.50;-2.20;98697.00;;;;4961525;28;87300;-61
2021/12/06 01:49:51;;;;;;;25.50;22.77;;;-1.80;86.50;-2.20;98695.00;;;;4962257;28;86540;-60
2021/12/06 01:52:47;;;;;;;27.80;24.80;;;-1.80;86.50;-2.30;98700.00;;;;4961787;28;89022;-57
2021/12/06 01:55:21;;;;;;;27.45;24.45;;;-1.80;86.50;-2.30;98699.00;;;;4960891;28;88004;-62
2021/12/06 01:57:48;;;;;;;27.88;23.40;;;-1.90;86.40;-2.30;98692.00;;;;4961195;28;88337;-61
2021/12/06 02:00:22;;;;;;;27.55;24.63;;;-1.90;86.40;-2.30;98699.00;;;;4961669;28;87076;-61
2021/12/06 02:02:54;;;;;;;27.92;23.33;;;-1.80;86.50;-2.30;98695.00;;;;4945281;28;90699;-62
2021/12/06 02:05:28;;;;;;;25.13;22.52;;;-1.90;86.50;-2.20;98700.00;;;;4945148;28;90696;-61
2021/12/06 02:07:54;;;;;;;26.60;23.75;;;-1.80;86.60;-2.20;98700.00;;;;4961051;28;86947;-61
2021/12/06 02:10:22;;;;;;;25.25;22.60;;;-1.80;86.50;-2.20;98702.00;;;;4961967;28;86978;-55
2021/12/06 02:12:52;;;;;;;27.15;24.00;;;-1.80;86.50;-2.20;98695.00;;;;4962271;28;88445;-57
2021/12/06 02:15:39;;;;;;;28.02;25.02;;;-1.80;86.50;-2.20;98699.00;;;;4979532;28;88847;-61
2021/12/06 02:18:15;;;;;;;26.13;23.42;;;-1.80;86.50;-2.20;98706.00;;;;4980840;28;87045;-61
2021/12/06 02:20:49;;;;;;;27.83;24.90;;;-1.80;86.50;-2.20;98703.00;;;;4980744;28;87079;-62
2021/12/06 02:23:18;;;;;;;29.90;24.25;;;-1.80;86.50;-2.20;98709.00;;;;4975540;28;89911;-60
2021/12/06 02:25:44;;;;;;;27.58;24.60;;;-1.80;86.50;-2.20;98711.00;;;;4976916;28;89251;-60
2021/12/06 02:28:11;;;;;;;29.45;26.10;;;-1.70;86.70;-2.10;98709.00;;;;4977375;28;87591;-60
2021/12/06 02:30:37;;;;;;;29.88;25.70;;;-1.70;86.70;-2.10;98706.00;;;;4962155;28;87411;-59
2021/12/06 02:33:04;;;;;;;27.98;25.08;;;-1.70;86.70;-2.10;98712.00;;;;4960729;28;89055;-57
2021/12/06 02:35:32;;;;;;;29.35;25.85;;;-1.70;86.70;-2.10;98708.00;;;;4960668;28;88391;-58
2021/12/06 02:38:06;;;;;;;31.65;27.08;;;-1.60;86.60;-2.10;98717.00;;;;4944662;28;87165;-54
2021/12/06 02:40:36;;;;;;;30.00;26.75;;;-1.70;86.30;-2.10;98710.00;;;;4962184;28;86207;-57
2021/12/06 02:43:08;;;;;;;32.47;28.35;;;-1.70;86.40;-2.20;98723.00;;;;4960456;28;88696;-57
2021/12/06 02:45:35;;;;;;;34.05;28.35;;;-1.70;86.70;-2.10;98712.00;;;;4960496;28;88330;-57
2021/12/06 02:48:05;;;;;;;31.50;28.23;;;-1.70;86.70;-2.10;98727.00;;;;4976460;28;87975;-53
2021/12/06 02:50:51;;;;;;;30.02;26.92;;;-1.70;86.70;-2.10;98723.00;;;;4961140;28;87075;-57
2021/12/06 02:53:20;;;;;;;30.98;27.13;;;-1.70;86.60;-2.10;98719.00;;;;4961257;28;88793;-57
2021/12/06 02:55:58;;;;;;;34.35;30.00;;;-1.70;86.70;-2.20;98729.00;;;;4961289;28;87412;-61
2021/12/06 03:01:20;;;;;;;30.75;27.27;;;-1.80;86.50;-2.20;98730.00;;;;4976704;28;87344;-61
2021/12/06 03:03:48;;;;;;;34.63;30.90;;;-1.80;86.50;-2.20;98733.00;;;;4961355;28;88812;-61
2021/12/06 03:06:15;;;;;;;32.65;28.70;;;-1.80;86.50;-2.20;98735.00;;;;4976822;28;89012;-61
2021/12/06 03:09:06;;;;;;;30.20;26.98;;;-1.80;86.50;-2.20;98726.00;;;;4976245;28;87005;-62
2021/12/06 03:11:43;;;;;;;29.65;26.38;;;-1.80;86.50;-2.20;98740.00;;;;4977100;28;87087;-60
2021/12/06 03:14:17;;;;;;;30.73;27.42;;;-1.80;86.40;-2.20;98739.00;;;;4960824;28;88667;-60
2021/12/06 03:16:45;;;;;;;29.75;26.60;;;-1.80;86.40;-2.20;98744.00;;;;4959771;28;89922;-60
2021/12/06 03:19:12;;;;;;;29.23;25.95;;;-1.80;86.00;-2.30;98744.00;;;;4976654;28;87321;-61
2021/12/06 03:21:39;;;;;;;29.58;26.52;;;-1.80;85.90;-2.30;98745.00;;;;4967442;28;87388;-61
2021/12/06 03:24:05;;;;;;;29.80;26.65;;;-1.90;86.10;-2.30;98753.00;;;;4979703;28;88398;-61
2021/12/06 03:26:35;;;;;;;30.98;27.67;;;-1.80;86.50;-2.20;98753.00;;;;4979385;28;88381;-62
2021/12/06 03:29:02;;;;;;;30.00;26.92;;;-1.80;86.20;-2.30;98743.00;;;;4968417;28;87223;-60
2021/12/06 03:31:29;;;;;;;30.95;27.85;;;-1.80;86.30;-2.30;98743.00;;;;4927705;28;86498;-60
2021/12/06 03:33:59;;;;;;;28.75;25.73;;;-1.90;85.70;-2.30;98746.00;;;;4927453;28;91020;-60
2021/12/06 03:36:29;;;;;;;31.08;27.85;;;-1.90;86.10;-2.30;98746.00;;;;4959627;28;87849;-61
2021/12/06 03:38:58;;;;;;;33.40;29.83;;;-1.90;86.20;-2.30;98733.00;;;;4959739;28;88130;-61
2021/12/06 03:41:28;;;;;;;31.85;28.45;;;-1.90;86.40;-2.40;98739.00;;;;4959693;28;87027;-61
2021/12/06 03:43:56;;;;;;;30.65;27.45;;;-1.90;86.40;-2.30;98748.00;;;;4959868;28;88921;-61
2021/12/06 03:46:24;;;;;;;34.17;30.52;;;-1.90;86.40;-2.30;98754.00;;;;4959874;28;87453;-60
2021/12/06 03:48:51;;;;;;;32.38;29.20;;;-1.90;86.40;-2.30;98751.00;;;;4959237;28;87054;-61
2021/12/06 03:51:19;;;;;;;32.10;28.75;;;-1.90;86.40;-2.30;98756.00;;;;4977134;28;86951;-62
2021/12/06 03:53:45;;;;;;;34.95;29.17;;;-1.90;86.40;-2.30;98759.00;;;;4963115;28;87951;-61
2021/12/06 03:56:13;;;;;;;36.95;31.02;;;-1.90;86.40;-2.30;98755.00;;;;4964275;28;88306;-61
2021/12/06 03:58:40;;;;;;;36.42;31.02;;;-1.90;86.40;-2.40;98757.00;;;;4962909;28;87121;-60
2021/12/06 04:01:08;;;;;;;36.15;30.77;;;-1.90;86.40;-2.40;98769.00;;;;4963036;28;87081;-59
2021/12/06 04:03:37;;;;;;;36.33;32.38;;;-1.90;86.40;-2.40;98759.00;;;;4962116;28;88571;-60
2021/12/06 04:06:06;;;;;;;42.45;34.38;;;-2.00;86.40;-2.40;98771.00;;;;4962578;28;90204;-59
2021/12/06 04:08:33;;;;;;;35.80;32.20;;;-2.00;86.30;-2.40;98768.00;;;;4962570;28;87032;-61
2021/12/06 04:11:01;;;;;;;40.40;33.60;;;-2.00;86.80;-2.40;98769.00;;;;4963080;28;87066;-60
2021/12/06 04:13:31;;;;;;;35.83;32.03;;;-2.00;87.10;-2.40;98764.00;;;;4962551;28;89518;-59
2021/12/06 04:15:57;;;;;;;37.92;32.85;;;-2.00;86.70;-2.40;98782.00;;;;4969515;28;88440;-61
2021/12/06 04:18:24;;;;;;;38.17;33.80;;;-2.00;86.50;-2.40;98779.00;;;;4962529;28;87152;-62
2021/12/06 04:20:51;;;;;;;33.97;30.40;;;-2.00;86.60;-2.40;98798.00;;;;4980495;28;86546;-53
2021/12/06 04:23:19;;;;;;;35.55;31.85;;;-2.00;86.30;-2.40;98795.00;;;;4992478;28;87616;-57
2021/12/06 04:25:48;;;;;;;34.00;30.45;;;-2.00;86.30;-2.40;98784.00;;;;4982046;28;88825;-57
2021/12/06 04:28:18;;;;;;;36.25;32.50;;;-2.00;86.30;-2.40;98786.00;;;;4981810;28;88073;-55
2021/12/06 04:30:48;;;;;;;34.17;30.58;;;-2.00;86.30;-2.40;98785.00;;;;4998706;28;87319;-55
2021/12/06 04:33:15;;;;;;;35.33;31.52;;;-2.00;86.30;-2.50;98796.00;;;;4983187;28;87500;-56
2021/12/06 04:35:44;;;;;;;35.97;32.25;;;-2.00;86.30;-2.50;98798.00;;;;4998369;28;88356;-57
2021/12/06 04:38:11;;;;;;;35.40;31.40;;;-2.00;86.30;-2.50;98793.00;;;;4982051;28;87435;-57
2021/12/06 04:40:38;;;;;;;35.72;31.95;;;-2.00;86.30;-2.50;98796.00;;;;4997960;28;87265;-57
2021/12/06 04:43:05;;;;;;;35.97;31.15;;;-2.00;86.30;-2.40;98801.00;;;;4998563;28;88384;-57
2021/12/06 04:45:32;;;;;;;31.65;28.35;;;-1.90;86.40;-2.40;98799.00;;;;4977715;28;90478;-55
2021/12/06 04:47:59;;;;;;;31.77;28.63;;;-2.00;85.90;-2.40;98794.00;;;;4962089;28;87104;-57
2021/12/06 04:50:31;;;;;;;31.17;28.00;;;-1.90;85.40;-2.50;98791.00;;;;4962131;28;87067;-57
2021/12/06 04:53:05;;;;;;;32.10;28.67;;;-2.00;85.10;-2.50;98804.00;;;;4977246;28;89623;-55
2021/12/06 04:55:56;;;;;;;31.77;27.80;;;-2.10;85.00;-2.50;98795.00;;;;4961448;28;88543;-60
2021/12/06 04:58:31;;;;;;;31.50;27.65;;;-2.10;85.50;-2.60;98808.00;;;;4961605;28;87122;-60
2021/12/06 05:01:13;;;;;;;26.73;23.88;;;-2.10;85.30;-2.60;98803.00;;;;4961349;28;87072;-59
2021/12/06 05:03:40;;;;;;;28.13;23.23;;;-2.10;84.90;-2.60;98788.00;;;;4977745;28;88714;-60
2021/12/06 05:06:20;;;;;;;24.35;21.85;;;-2.10;84.60;-2.60;98793.00;;;;4944898;28;88510;-57
2021/12/06 05:08:53;;;;;;;23.65;21.30;;;-2.20;84.40;-2.70;98807.00;;;;4961436;28;87071;-60
2021/12/06 05:11:23;;;;;;;24.25;21.70;;;-2.20;84.40;-2.60;98820.00;;;;4963056;28;86203;-58
2021/12/06 05:13:53;;;;;;;22.07;19.77;;;-2.20;84.50;-2.60;98809.00;;;;4960565;28;88679;-57
2021/12/06 05:16:21;;;;;;;21.10;18.95;;;-2.20;84.20;-2.60;98814.00;;;;4972454;28;87312;-62
2021/12/06 05:18:49;;;;;;;22.52;20.23;;;-2.20;84.40;-2.60;98812.00;;;;4980397;28;88253;-64
2021/12/06 05:21:16;;;;;;;20.42;18.42;;;-2.10;84.60;-2.60;98812.00;;;;4997256;28;87138;-62
2021/12/06 05:23:44;;;;;;;20.13;18.02;;;-2.20;84.30;-2.60;98813.00;;;;4986688;28;88468;-63
2021/12/06 05:26:11;;;;;;;21.42;18.08;;;-2.20;84.20;-2.60;98805.00;;;;4997899;28;87515;-63
2021/12/06 05:28:43;;;;;;;20.50;18.40;;;-2.20;84.10;-2.70;98807.00;;;;4980066;28;87095;-62
2021/12/06 05:31:15;;;;;;;20.95;18.10;;;-2.20;84.30;-2.70;98800.00;;;;4945524;28;86943;-62
2021/12/06 05:33:47;;;;;;;20.77;18.63;;;-2.30;84.40;-2.80;98808.00;;;;4961139;28;88593;-62
2021/12/06 05:36:14;;;;;;;19.17;17.17;;;-2.30;84.80;-2.70;98822.00;;;;4962225;28;89387;-62
2021/12/06 05:38:40;;;;;;;18.52;16.58;;;-2.30;85.10;-2.70;98824.00;;;;4962785;28;87103;-62
2021/12/06 05:41:07;;;;;;;18.85;16.90;;;-2.30;84.50;-2.80;98819.00;;;;4962302;28;86999;-63
2021/12/06 05:43:34;;;;;;;18.67;16.70;;;-2.40;84.50;-2.80;98821.00;;;;4962031;28;88777;-62
2021/12/06 05:46:01;;;;;;;20.42;18.23;;;-2.40;84.70;-2.90;98825.00;;;;4977379;28;88591;-62
2021/12/06 05:48:27;;;;;;;18.50;16.65;;;-2.40;84.80;-2.90;98829.00;;;;4962261;28;87460;-63
2021/12/06 05:50:54;;;;;;;20.08;17.73;;;-2.40;85.10;-2.90;98822.00;;;;4962250;28;87633;-63
2021/12/06 05:53:21;;;;;;;19.73;17.55;;;-2.40;84.90;-2.90;98814.00;;;;4962161;28;88378;-61
2021/12/06 05:55:49;;;;;;;19.83;17.85;;;-2.40;84.80;-2.90;98829.00;;;;4961851;28;89393;-62
2021/12/06 05:58:18;;;;;;;19.40;17.50;;;-2.40;84.70;-2.80;98828.00;;;;4977516;28;87328;-62
2021/12/06 06:00:45;;;;;;;19.98;17.98;;;-2.40;84.80;-2.80;98826.00;;;;4962173;28;86457;-61
2021/12/06 06:03:11;;;;;;;20.02;18.02;;;-2.40;85.10;-2.80;98826.00;;;;4962438;28;88690;-62
2021/12/06 06:05:38;;;;;;;19.95;17.85;;;-2.40;85.00;-2.90;98836.00;;;;4970146;28;87464;-62
2021/12/06 06:08:06;;;;;;;21.70;19.40;;;-2.50;84.70;-2.90;98838.00;;;;4980872;28;88201;-62
2021/12/06 06:10:33;;;;;;;19.35;17.40;;;-2.50;84.80;-2.90;98831.00;;;;4981418;28;87082;-61
2021/12/06 06:13:01;;;;;;;20.08;17.98;;;-2.50;84.90;-2.90;98838.00;;;;4980824;28;87868;-62
2021/12/06 06:15:29;;;;;;;21.92;18.70;;;-2.50;85.20;-2.90;98828.00;;;;4969709;28;87135;-62
2021/12/06 06:18:00;;;;;;;20.77;18.65;;;-2.50;84.90;-2.90;98837.00;;;;4960393;28;87402;-62
2021/12/06 06:20:39;;;;;;;20.37;18.37;;;-2.50;85.00;-3.00;98835.00;;;;4977753;28;87600;-62
2021/12/06 06:23:06;;;;;;;19.17;17.17;;;-2.50;85.10;-3.00;98844.00;;;;4977375;28;87859;-62
2021/12/06 06:25:33;;;;;;;23.00;19.27;;;-2.50;84.80;-3.00;98850.00;;;;4961850;28;87419;-61
2021/12/06 06:28:00;;;;;;;19.90;17.92;;;-2.50;85.20;-3.00;98845.00;;;;4961972;28;86991;-62
2021/12/06 06:30:26;;;;;;;19.42;17.45;;;-2.60;85.30;-3.00;98842.00;;;;4961349;28;87437;-62
2021/12/06 06:32:53;;;;;;;19.35;17.35;;;-2.60;85.10;-3.10;98843.00;;;;4960949;28;88720;-63
2021/12/06 06:35:20;;;;;;;18.98;16.98;;;-2.60;85.00;-3.10;98851.00;;;;4961371;28;89480;-63
2021/12/06 06:37:46;;;;;;;19.85;17.75;;;-2.60;85.60;-3.10;98858.00;;;;4961821;28;86965;-63
2021/12/06 06:40:14;;;;;;;15.82;14.30;;;-2.60;84.90;-3.00;98856.00;;;;4961609;28;87010;-56
2021/12/06 06:42:41;;;;;;;19.52;17.40;;;-2.50;84.40;-3.00;98874.00;;;;4961437;28;87604;-59
2021/12/06 06:45:11;;;;;;;20.42;18.23;;;-2.60;83.60;-3.00;98871.00;;;;4960717;28;87605;-58
2021/12/06 06:47:37;;;;;;;17.17;15.27;;;-2.60;84.20;-3.10;98874.00;;;;4961306;28;87127;-59
2021/12/06 06:50:04;;;;;;;20.38;17.25;;;-2.70;85.10;-3.20;98871.00;;;;4961517;28;86252;-58
2021/12/06 06:52:31;;;;;;;20.33;16.85;;;-2.70;85.10;-3.00;98865.00;;;;4959924;28;87782;-59
2021/12/06 06:54:59;;;;;;;21.60;17.80;;;-2.60;85.50;-3.00;98873.00;;;;4976221;28;88494;-59
2021/12/06 06:57:26;;;;;;;18.88;16.27;;;-2.60;85.10;-3.10;98875.00;;;;4960321;28;88008;-58
2021/12/06 06:59:53;;;;;;;19.67;15.82;;;-2.60;84.70;-3.20;98892.00;;;;4961169;28;88907;-59
2021/12/06 07:02:19;;;;;;;16.48;14.20;;;-2.70;83.90;-3.20;98885.00;;;;4960675;28;87703;-59
2021/12/06 07:04:45;;;;;;;16.83;13.93;;;-2.80;83.80;-3.20;98883.00;;;;4960821;28;87019;-58
2021/12/06 07:07:11;;;;;;;14.93;13.32;;;-2.80;84.00;-3.20;98895.00;;;;4960375;28;87010;-58
2021/12/06 07:09:37;;;;;;;14.48;12.98;;;-2.80;84.20;-3.20;98889.00;;;;4959551;28;87650;-58
2021/12/06 07:12:11;;;;;;;13.35;11.50;;;-2.80;84.30;-3.20;98881.00;;;;4961123;28;87766;-57
2021/12/06 07:14:37;;;;;;;13.98;11.07;;;-2.70;84.10;-3.10;98890.00;;;;4964729;28;87505;-55
2021/12/06 07:17:03;;;;;;;13.40;11.20;;;-2.70;82.10;-3.10;98889.00;;;;4964087;28;86993;-58
2021/12/06 07:19:29;;;;;;;13.55;11.15;;;-2.70;82.50;-3.20;98893.00;;;;4961067;28;86887;-56
2021/12/06 07:21:57;;;;;;;12.70;10.20;;;-2.70;82.50;-3.20;98897.00;;;;4960339;28;89177;-58
2021/12/06 07:24:24;;;;;;;13.05;11.48;;;-2.80;82.70;-3.30;98883.00;;;;4979213;28;88379;-54
2021/12/06 07:26:50;;;;;;;12.90;10.85;;;-2.90;82.70;-3.30;98901.00;;;;4959934;28;87375;-58
2021/12/06 07:29:16;;;;;;;14.77;13.18;;;-2.90;83.10;-3.30;98903.00;;;;4960813;28;87064;-55
2021/12/06 07:31:42;;;;;;;14.98;12.55;;;-2.90;83.30;-3.40;98910.00;;;;4960338;28;87635;-59
2021/12/06 07:34:08;;;;;;;14.30;12.80;;;-2.90;83.60;-3.40;98902.00;;;;4960796;28;88471;-57
2021/12/06 07:36:34;;;;;;;14.88;12.85;;;-2.90;83.70;-3.40;98909.00;;;;4959520;28;87388;-59
2021/12/06 07:39:01;;;;;;;14.85;13.13;;;-2.90;83.90;-3.40;98906.00;;;;4961574;28;86385;-57
2021/12/06 07:41:28;;;;;;;16.40;14.32;;;-3.00;84.20;-3.50;98898.00;;;;4960800;28;87963;-56
2021/12/06 07:43:56;;;;;;;17.98;15.70;;;-3.00;84.20;-3.50;98908.00;;;;4960623;28;87465;-57
2021/12/06 07:46:23;;;;;;;17.33;15.35;;;-3.10;84.00;-3.60;98904.00;;;;4959724;28;88413;-58
2021/12/06 07:48:52;;;;;;;18.77;16.38;;;-3.10;85.20;-3.50;98902.00;;;;4960959;28;87080;-58
2021/12/06 07:51:23;;;;;;;18.42;15.80;;;-3.00;84.60;-3.50;98911.00;;;;4960708;28;87669;-57
2021/12/06 07:53:50;;;;;;;20.57;17.73;;;-3.10;83.90;-3.60;98897.00;;;;4960070;28;87536;-58
2021/12/06 07:56:17;;;;;;;20.65;18.45;;;-3.10;83.90;-3.60;98899.00;;;;4969490;28;87277;-56
2021/12/06 07:58:44;;;;;;;21.42;18.35;;;-3.20;84.30;-3.60;98889.00;;;;4980014;28;87326;-59
2021/12/06 08:01:10;;;;;;;24.13;20.10;;;-3.20;85.10;-3.60;98890.00;;;;4978517;28;88517;-59
2021/12/06 08:03:38;;;;;;;28.63;22.92;;;-3.20;84.70;-3.80;98902.00;;;;4980101;28;88035;-57
2021/12/06 08:06:05;;;;;;;26.92;22.15;;;-3.30;85.00;-3.80;98903.00;;;;4995472;28;87426;-57
2021/12/06 08:08:33;;;;;;;32.83;25.38;;;-3.30;85.60;-3.70;98915.00;;;;4979692;28;87676;-57
2021/12/06 08:11:06;;;;;;;29.98;24.52;;;-3.30;86.60;-3.70;98915.00;;;;4976956;28;89618;-57
2021/12/06 08:13:35;;;;;;;42.30;31.38;;;-3.30;85.90;-3.80;98920.00;;;;4959294;28;88860;-58
2021/12/06 08:16:09;;;;;;;34.63;26.52;;;-3.30;86.10;-3.70;98911.00;;;;4967941;28;87027;-56
2021/12/06 08:18:36;;;;;;;38.70;29.85;;;-3.20;86.50;-3.70;98914.00;;;;4979934;28;87030;-57
2021/12/06 08:21:04;;;;;;;29.58;25.27;;;-3.30;86.40;-3.70;98913.00;;;;4979938;28;87539;-54
2021/12/06 08:23:31;;;;;;;40.55;31.23;;;-3.20;86.80;-3.70;98931.00;;;;4973431;28;87593;-57
2021/12/06 08:25:59;;;;;;;34.80;29.25;;;-3.20;86.40;-3.70;98932.00;;;;4960413;28;87308;-57
2021/12/06 08:28:28;;;;;;;40.72;32.33;;;-3.10;86.80;-3.60;98943.00;;;;4959534;28;86318;-57
2021/12/06 08:30:54;;;;;;;46.75;34.75;;;-3.20;86.60;-3.70;98936.00;;;;4960027;28;87504;-55
2021/12/06 08:33:21;;;;;;;45.80;35.22;;;-3.20;86.50;-3.80;98933.00;;;;4959918;28;87479;-56
2021/12/06 08:35:52;;;;;;;42.15;34.33;;;-3.30;87.00;-3.70;98941.00;;;;4975039;28;88296;-59
2021/12/06 08:38:23;;;;;;;42.50;33.30;;;-3.20;87.30;-3.70;98943.00;;;;4961828;28;87105;-56
2021/12/06 08:40:52;;;;;;;42.83;33.80;;;-3.30;86.80;-3.70;98949.00;;;;4962403;28;89109;-60
2021/12/06 08:43:19;;;;;;;38.20;31.75;;;-3.30;87.20;-3.60;98945.00;;;;4963565;28;87492;-60
2021/12/06 08:46:00;;;;;;;46.67;35.50;;;-3.10;87.60;-3.60;98945.00;;;;4963139;28;86904;-57
2021/12/06 08:48:30;;;;;;;46.33;35.38;;;-3.20;86.70;-3.60;98953.00;;;;4963987;28;87372;-59
2021/12/06 08:51:01;;;;;;;49.70;36.72;;;-3.20;87.30;-3.60;98950.00;;;;4961992;28;87756;-56
2021/12/06 08:53:28;;;;;;;44.17;35.67;;;-3.10;87.20;-3.50;98953.00;;;;4963383;28;89419;-57
2021/12/06 08:55:55;;;;;;;41.08;33.42;;;-3.10;87.30;-3.50;98939.00;;;;4962855;28;87286;-58
2021/12/06 08:58:22;;;;;;;43.75;34.33;;;-3.00;87.40;-3.60;98936.00;;;;4963570;28;87482;-59
2021/12/06 09:00:49;;;;;;;35.70;29.52;;;-3.10;86.70;-3.50;98927.00;;;;4963278;28;88827;-59
2021/12/06 09:03:15;;;;;;;41.67;34.60;;;-3.10;87.00;-3.50;98934.00;;;;4962915;28;88327;-56
2021/12/06 09:05:46;;;;;;;40.38;32.10;;;-3.10;85.50;-3.60;98930.00;;;;4963223;28;87015;-57
2021/12/06 09:08:13;;;;;;;37.30;30.27;;;-3.10;87.00;-3.60;98939.00;;;;4962448;28;86951;-56
2021/12/06 09:10:40;;;;;;;36.92;29.20;;;-3.20;85.10;-3.70;98945.00;;;;4962295;28;87000;-58
2021/12/06 09:13:07;;;;;;;33.95;28.70;;;-3.30;85.10;-3.70;98945.00;;;;4963068;28;87979;-55
2021/12/06 09:15:34;;;;;;;35.75;28.70;;;-3.20;85.50;-3.70;98933.00;;;;4985525;28;87033;-56
2021/12/06 09:18:02;;;;;;;36.92;29.83;;;-3.30;85.50;-3.70;98935.00;;;;4963654;28;86538;-57
2021/12/06 09:20:38;;;;;;;36.03;28.88;;;-3.30;85.00;-3.70;98935.00;;;;4962135;28;89162;-58
2021/12/06 09:23:06;;;;;;;33.38;27.65;;;-3.20;85.10;-3.70;98941.00;;;;4975627;28;87393;-54
2021/12/06 09:25:34;;;;;;;33.92;28.63;;;-3.30;85.00;-3.80;98936.00;;;;4982097;28;88220;-58
2021/12/06 09:28:00;;;;;;;34.55;27.83;;;-3.30;84.80;-3.80;98922.00;;;;4982816;28;87152;-58
2021/12/06 09:30:31;;;;;;;29.35;24.08;;;-3.40;84.90;-3.90;98935.00;;;;4982141;28;87756;-58
2021/12/06 09:32:59;;;;;;;26.85;23.13;;;-3.40;85.00;-3.80;98935.00;;;;4982748;28;87389;-58
2021/12/06 09:35:28;;;;;;;31.35;24.55;;;-3.30;85.20;-3.70;98941.00;;;;4981887;28;86896;-58
2021/12/06 09:37:59;;;;;;;31.80;25.85;;;-3.30;84.40;-3.70;98944.00;;;;4982999;28;87369;-62
2021/12/06 09:40:28;;;;;;;32.03;25.08;;;-3.30;84.70;-3.90;98935.00;;;;4997835;28;89249;-62
2021/12/06 09:42:56;;;;;;;28.38;21.65;;;-3.40;85.00;-3.80;98932.00;;;;4980427;28;86747;-60
2021/12/06 09:45:29;;;;;;;34.63;26.77;;;-3.30;85.90;-3.70;98958.00;;;;4982011;28;87213;-61
2021/12/06 09:47:56;;;;;;;28.70;22.83;;;-3.30;85.00;-3.80;98943.00;;;;4982240;28;87497;-62
2021/12/06 09:50:38;;;;;;;33.35;24.88;;;-3.40;84.80;-3.80;98948.00;;;;4980408;28;90113;-62
2021/12/06 09:53:09;;;;;;;30.63;24.50;;;-3.40;84.50;-3.90;98949.00;;;;4974554;28;89279;-60
2021/12/06 09:55:37;;;;;;;32.40;26.00;;;-3.40;84.90;-4.00;98961.00;;;;4961236;28;87043;-62
2021/12/06 09:58:05;;;;;;;36.55;26.95;;;-3.50;84.80;-4.00;98944.00;;;;4962481;28;87403;-62
2021/12/06 10:00:41;;;;;;;33.95;25.02;;;-3.50;84.80;-4.00;98937.00;;;;4962465;28;87642;-63
2021/12/06 10:03:08;;;;;;;32.13;23.85;;;-3.60;84.80;-4.10;98936.00;;;;4961028;28;87613;-62
2021/12/06 10:05:35;;;;;;;29.52;24.23;;;-3.60;85.70;-4.10;98948.00;;;;4972002;28;87472;-61
2021/12/06 10:08:02;;;;;;;33.97;26.20;;;-3.60;85.60;-4.10;98948.00;;;;4962951;28;86447;-62
2021/12/06 10:10:30;;;;;;;36.15;27.77;;;-3.60;85.80;-4.00;98950.00;;;;4962568;28;88103;-62
2021/12/06 10:12:58;;;;;;;37.72;27.27;;;-3.50;86.90;-4.00;98952.00;;;;4961959;28;87383;-60
2021/12/06 10:15:29;;;;;;;35.17;27.08;;;-3.50;86.00;-4.10;98955.00;;;;4963377;28;88183;-61
2021/12/06 10:17:57;;;;;;;29.88;22.98;;;-3.50;86.00;-4.00;98949.00;;;;4981691;28;87285;-61
2021/12/06 10:20:27;;;;;;;47.78;30.88;;;-3.50;86.40;-4.10;98950.00;;;;4981388;28;87586;-64
2021/12/06 10:22:54;;;;;;;34.45;27.20;;;-3.60;86.00;-4.00;98947.00;;;;4970014;28;88019;-61
2021/12/06 10:25:22;;;;;;;36.47;27.92;;;-3.50;86.60;-3.90;98948.00;;;;4961776;28;87395;-62
2021/12/06 10:28:00;;;;;;;37.10;26.73;;;-3.50;86.20;-4.00;98954.00;;;;4962086;28;87348;-59
2021/12/06 10:30:27;;;;;;;36.58;28.35;;;-3.50;86.70;-4.00;98937.00;;;;4961678;28;88743;-58
2021/12/06 10:33:12;;;;;;;42.40;29.10;;;-3.50;86.10;-4.10;98952.00;;;;4962357;28;87552;-58
2021/12/06 10:35:45;;;;;;;42.50;29.33;;;-3.60;86.30;-4.10;98946.00;;;;4962049;28;86973;-56
2021/12/06 10:38:37;;;;;;;42.13;30.40;;;-3.60;86.90;-4.10;98932.00;;;;4962353;28;87178;-59
2021/12/06 10:41:12;;;;;;;41.10;30.33;;;-3.60;87.20;-4.20;98949.00;;;;4960832;28;88620;-57
2021/12/06 10:43:40;;;;;;;47.28;32.25;;;-3.60;87.40;-4.10;98949.00;;;;4961688;28;88355;-59
2021/12/06 10:46:08;;;;;;;49.58;34.15;;;-3.60;87.40;-4.10;98945.00;;;;4961283;28;87260;-58
2021/12/06 10:48:39;;;;;;;57.88;31.60;;;-3.60;87.50;-4.10;98945.00;;;;4960582;28;87543;-60
2021/12/06 10:51:18;;;;;;;43.90;30.90;;;-3.50;87.60;-4.00;98933.00;;;;4961799;28;87478;-59
2021/12/06 10:53:59;;;;;;;46.60;30.92;;;-3.50;87.30;-4.10;98942.00;;;;4961541;28;87645;-59
2021/12/06 10:56:38;;;;;;;51.58;33.53;;;-3.60;87.00;-4.10;98953.00;;;;4961473;28;87021;-58
2021/12/06 10:59:23;;;;;;;43.42;29.73;;;-3.60;87.50;-4.00;98948.00;;;;4961988;28;86297;-56
2021/12/06 11:01:54;;;;;;;47.08;31.65;;;-3.50;87.50;-4.00;98941.00;;;;4961632;28;87940;-60
2021/12/06 11:04:26;;;;;;;47.05;33.78;;;-3.50;87.40;-4.00;98955.00;;;;4961468;28;88754;-60
2021/12/06 11:07:00;;;;;;;49.92;34.10;;;-3.50;87.40;-4.00;98965.00;;;;4960421;28;88341;-62
2021/12/06 11:09:31;;;;;;;44.72;32.42;;;-3.50;87.30;-4.00;98966.00;;;;4961039;28;87441;-61